sensor_id;sensor_type;location;lat;lon;timestamp;pressure;altitude;pressure_sealevel;temperature
69415;BMP280;56608;43.530;-5.652;2023-02-11T00:00:27;103008.59;;;7.29
69415;BMP280;56608;43.530;-5.652;2023-02-11T00:01:34;102999.25;;;7.23
69415;BMP280;56608;43.530;-5.652;2023-02-11T00:02:36;103004.94;;;7.37
69415;BMP280;56608;43.530;-5.652;2023-02-11T00:03:36;103006.03;;;7.16
69415;BMP280;56608;43.530;-5.652;2023-02-11T00:04:38;103010.69;;;7.20
69415;BMP280;56608;43.530;-5.652;2023-02-11T00:05:40;102994.78;;;7.27
69415;BMP280;56608;43.530;-5.652;2023-02-11T00:06:41;103006.81;;;7.17
69415;BMP280;56608;43.530;-5.652;2023-02-11T00:07:43;103003.63;;;7.11
69415;BMP280;56608;43.530;-5.652;2023-02-11T00:08:44;103010.25;;;7.17
69415;BMP280;56608;43.530;-5.652;2023-02-11T00:09:45;103005.94;;;7.13
69415;BMP280;56608;43.530;-5.652;2023-02-11T00:10:53;103006.59;;;7.06
69415;BMP280;56608;43.530;-5.652;2023-02-11T00:11:55;102998.56;;;7.06
69415;BMP280;56608;43.530;-5.652;2023-02-11T00:12:57;102999.00;;;7.08
69415;BMP280;56608;43.530;-5.652;2023-02-11T00:14:01;102997.94;;;6.97
69415;BMP280;56608;43.530;-5.652;2023-02-11T00:15:05;103003.13;;;6.90
69415;BMP280;56608;43.530;-5.652;2023-02-11T00:16:13;103003.13;;;6.90
69415;BMP280;56608;43.530;-5.652;2023-02-11T00:17:14;103006.59;;;7.06
69415;BMP280;56608;43.530;-5.652;2023-02-11T00:18:16;102997.66;;;7.18
69415;BMP280;56608;43.530;-5.652;2023-02-11T00:19:17;103002.91;;;7.30
69415;BMP280;56608;43.530;-5.652;2023-02-11T00:20:18;102996.44;;;7.31
69415;BMP280;56608;43.530;-5.652;2023-02-11T00:21:22;102999.25;;;7.23
69415;BMP280;56608;43.530;-5.652;2023-02-11T00:22:24;102996.47;;;7.15
69415;BMP280;56608;43.530;-5.652;2023-02-11T00:23:25;102996.94;;;7.21
69415;BMP280;56608;43.530;-5.652;2023-02-11T00:24:27;102986.03;;;7.10
69415;BMP280;56608;43.530;-5.652;2023-02-11T00:25:30;102995.47;;;7.04
69415;BMP280;56608;43.530;-5.652;2023-02-11T00:26:31;102997.69;;;7.02
69415;BMP280;56608;43.530;-5.652;2023-02-11T00:27:33;102988.09;;;7.01
69415;BMP280;56608;43.530;-5.652;2023-02-11T00:28:36;102993.56;;;7.05
69415;BMP280;56608;43.530;-5.652;2023-02-11T00:29:38;102986.88;;;7.14
69415;BMP280;56608;43.530;-5.652;2023-02-11T00:30:38;102990.69;;;7.13
69415;BMP280;56608;43.530;-5.652;2023-02-11T00:31:40;102988.56;;;7.03
69415;BMP280;56608;43.530;-5.652;2023-02-11T00:32:41;102986.13;;;6.98
69415;BMP280;56608;43.530;-5.652;2023-02-11T00:33:43;102992.59;;;6.97
69415;BMP280;56608;43.530;-5.652;2023-02-11T00:34:45;102998.72;;;6.98
69415;BMP280;56608;43.530;-5.652;2023-02-11T00:35:45;102991.53;;;6.82
69415;BMP280;56608;43.530;-5.652;2023-02-11T00:36:47;102987.31;;;6.81
69415;BMP280;56608;43.530;-5.652;2023-02-11T00:37:48;102994.34;;;6.74
69415;BMP280;56608;43.530;-5.652;2023-02-11T00:38:51;102986.97;;;6.67
69415;BMP280;56608;43.530;-5.652;2023-02-11T00:39:53;102995.41;;;6.54
69415;BMP280;56608;43.530;-5.652;2023-02-11T00:40:55;102984.81;;;6.57
69415;BMP280;56608;43.530;-5.652;2023-02-11T00:41:57;102979.63;;;6.48
69415;BMP280;56608;43.530;-5.652;2023-02-11T00:42:57;102975.25;;;6.40
69415;BMP280;56608;43.530;-5.652;2023-02-11T00:44:00;102982.72;;;6.35
69415;BMP280;56608;43.530;-5.652;2023-02-11T00:45:02;102978.78;;;6.44
69415;BMP280;56608;43.530;-5.652;2023-02-11T00:46:04;102965.25;;;6.37
69415;BMP280;56608;43.530;-5.652;2023-02-11T00:47:04;102971.44;;;6.41
69415;BMP280;56608;43.530;-5.652;2023-02-11T00:48:06;102975.66;;;6.42
69415;BMP280;56608;43.530;-5.652;2023-02-11T00:49:08;102977.06;;;6.52
69415;BMP280;56608;43.530;-5.652;2023-02-11T00:50:08;102969.37;;;6.66
69415;BMP280;56608;43.530;-5.652;2023-02-11T00:51:11;102965.25;;;6.69
69415;BMP280;56608;43.530;-5.652;2023-02-11T00:52:12;102965.94;;;6.66
69415;BMP280;56608;43.530;-5.652;2023-02-11T00:53:14;102961.19;;;6.59
69415;BMP280;56608;43.530;-5.652;2023-02-11T00:54:15;102961.97;;;6.60
69415;BMP280;56608;43.530;-5.652;2023-02-11T00:55:17;102970.41;;;6.62
69415;BMP280;56608;43.530;-5.652;2023-02-11T00:56:18;102971.38;;;6.69
69415;BMP280;56608;43.530;-5.652;2023-02-11T00:57:20;102959.03;;;6.65
69415;BMP280;56608;43.530;-5.652;2023-02-11T00:58:21;102969.03;;;6.68
69415;BMP280;56608;43.530;-5.652;2023-02-11T00:59:23;102966.63;;;6.63
69415;BMP280;56608;43.530;-5.652;2023-02-11T01:00:25;102965.84;;;6.62
69415;BMP280;56608;43.530;-5.652;2023-02-11T01:01:27;102956.56;;;6.56
69415;BMP280;56608;43.530;-5.652;2023-02-11T01:02:28;102971.97;;;6.63
69415;BMP280;56608;43.530;-5.652;2023-02-11T01:03:30;102953.69;;;6.65
69415;BMP280;56608;43.530;-5.652;2023-02-11T01:04:31;102958.34;;;6.68
69415;BMP280;56608;43.530;-5.652;2023-02-11T01:05:32;102950.34;;;6.68
69415;BMP280;56608;43.530;-5.652;2023-02-11T01:06:34;102948.34;;;6.65
69415;BMP280;56608;43.530;-5.652;2023-02-11T01:07:35;102956.63;;;6.60
69415;BMP280;56608;43.530;-5.652;2023-02-11T01:08:36;102952.69;;;6.54
69415;BMP280;56608;43.530;-5.652;2023-02-11T01:09:38;102953.56;;;6.58
69415;BMP280;56608;43.530;-5.652;2023-02-11T01:10:39;102958.59;;;6.63
69415;BMP280;56608;43.530;-5.652;2023-02-11T01:11:41;102952.78;;;6.57
69415;BMP280;56608;43.530;-5.652;2023-02-11T01:12:42;102947.69;;;6.52
69415;BMP280;56608;43.530;-5.652;2023-02-11T01:13:43;102947.84;;;6.43
69415;BMP280;56608;43.530;-5.652;2023-02-11T01:14:45;102945.19;;;6.28
69415;BMP280;56608;43.530;-5.652;2023-02-11T01:15:46;102940.06;;;6.23
69415;BMP280;56608;43.530;-5.652;2023-02-11T01:16:48;102946.44;;;6.18
69415;BMP280;56608;43.530;-5.652;2023-02-11T01:17:49;102947.97;;;6.19
69415;BMP280;56608;43.530;-5.652;2023-02-11T01:18:50;102941.09;;;6.18
69415;BMP280;56608;43.530;-5.652;2023-02-11T01:19:52;102938.63;;;6.25
69415;BMP280;56608;43.530;-5.652;2023-02-11T01:20:52;102924.59;;;6.28
69415;BMP280;56608;43.530;-5.652;2023-02-11T01:21:54;102937.16;;;6.43
69415;BMP280;56608;43.530;-5.652;2023-02-11T01:22:55;102928.97;;;6.36
69415;BMP280;56608;43.530;-5.652;2023-02-11T01:23:56;102932.00;;;6.35
69415;BMP280;56608;43.530;-5.652;2023-02-11T01:24:58;102926.56;;;6.31
69415;BMP280;56608;43.530;-5.652;2023-02-11T01:25:59;102930.50;;;6.22
69415;BMP280;56608;43.530;-5.652;2023-02-11T01:27:01;102920.38;;;6.11
69415;BMP280;56608;43.530;-5.652;2023-02-11T01:28:02;102918.63;;;6.19
69415;BMP280;56608;43.530;-5.652;2023-02-11T01:29:04;102917.50;;;6.20
69415;BMP280;56608;43.530;-5.652;2023-02-11T01:30:08;102919.75;;;6.18
69415;BMP280;56608;43.530;-5.652;2023-02-11T01:31:09;102921.13;;;6.12
69415;BMP280;56608;43.530;-5.652;2023-02-11T01:32:11;102913.12;;;6.12
69415;BMP280;56608;43.530;-5.652;2023-02-11T01:33:12;102915.81;;;6.12
69415;BMP280;56608;43.530;-5.652;2023-02-11T01:34:14;102921.63;;;6.18
69415;BMP280;56608;43.530;-5.652;2023-02-11T01:35:16;102904.78;;;6.13
69415;BMP280;56608;43.530;-5.652;2023-02-11T01:36:17;102911.59;;;6.27
69415;BMP280;56608;43.530;-5.652;2023-02-11T01:37:19;102910.63;;;6.19
69415;BMP280;56608;43.530;-5.652;2023-02-11T01:38:23;102919.75;;;6.18
69415;BMP280;56608;43.530;-5.652;2023-02-11T01:39:24;102915.94;;;6.19
69415;BMP280;56608;43.530;-5.652;2023-02-11T01:40:26;102917.72;;;6.27
69415;BMP280;56608;43.530;-5.652;2023-02-11T01:41:27;102912.09;;;6.32
69415;BMP280;56608;43.530;-5.652;2023-02-11T01:42:29;102912.53;;;6.34
69415;BMP280;56608;43.530;-5.652;2023-02-11T01:43:35;102917.34;;;6.44
69415;BMP280;56608;43.530;-5.652;2023-02-11T01:44:38;102912.59;;;6.22
69415;BMP280;56608;43.530;-5.652;2023-02-11T01:46:47;102902.34;;;5.93
69415;BMP280;56608;43.530;-5.652;2023-02-11T01:47:48;102903.19;;;5.81
69415;BMP280;56608;43.530;-5.652;2023-02-11T01:48:54;102894.25;;;5.73
69415;BMP280;56608;43.530;-5.652;2023-02-11T01:49:58;102895.56;;;5.67
69415;BMP280;56608;43.530;-5.652;2023-02-11T01:51:26;102897.47;;;5.67
69415;BMP280;56608;43.530;-5.652;2023-02-11T01:52:31;102900.69;;;5.72
69415;BMP280;56608;43.530;-5.652;2023-02-11T01:53:35;102901.69;;;5.68
69415;BMP280;56608;43.530;-5.652;2023-02-11T01:55:00;102897.56;;;5.70
69415;BMP280;56608;43.530;-5.652;2023-02-11T01:56:24;102891.34;;;5.66
69415;BMP280;56608;43.530;-5.652;2023-02-11T01:57:52;102902.19;;;5.58
69415;BMP280;56608;43.530;-5.652;2023-02-11T01:59:02;102893.81;;;5.59
69415;BMP280;56608;43.530;-5.652;2023-02-11T02:01:12;102896.78;;;5.70
69415;BMP280;56608;43.530;-5.652;2023-02-11T02:02:18;102896.78;;;5.70
69415;BMP280;56608;43.530;-5.652;2023-02-11T02:03:23;102891.66;;;5.77
69415;BMP280;56608;43.530;-5.652;2023-02-11T02:04:27;102895.19;;;5.81
69415;BMP280;56608;43.530;-5.652;2023-02-11T02:05:37;102893.50;;;5.89
69415;BMP280;56608;43.530;-5.652;2023-02-11T02:06:48;102888.56;;;5.91
69415;BMP280;56608;43.530;-5.652;2023-02-11T02:07:55;102895.53;;;5.95
69415;BMP280;56608;43.530;-5.652;2023-02-11T02:09:15;102899.22;;;5.91
69415;BMP280;56608;43.530;-5.652;2023-02-11T02:10:20;102892.44;;;5.93
69415;BMP280;56608;43.530;-5.652;2023-02-11T02:11:22;102886.31;;;5.93
69415;BMP280;56608;43.530;-5.652;2023-02-11T02:12:24;102885.88;;;5.91
69415;BMP280;56608;43.530;-5.652;2023-02-11T02:13:27;102884.09;;;5.95
69415;BMP280;56608;43.530;-5.652;2023-02-11T02:14:30;102883.41;;;5.98
69415;BMP280;56608;43.530;-5.652;2023-02-11T02:15:33;102882.53;;;5.94
69415;BMP280;56608;43.530;-5.652;2023-02-11T02:16:35;102875.50;;;5.86
69415;BMP280;56608;43.530;-5.652;2023-02-11T02:17:43;102886.84;;;5.82
69415;BMP280;56608;43.530;-5.652;2023-02-11T02:23:10;102870.75;;;5.79
69415;BMP280;56608;43.530;-5.652;2023-02-11T02:26:01;102871.00;;;5.90
69415;BMP280;56608;43.530;-5.652;2023-02-11T02:27:31;102864.97;;;5.77
69415;BMP280;56608;43.530;-5.652;2023-02-11T02:30:38;102858.75;;;5.57
69415;BMP280;56608;43.530;-5.652;2023-02-11T02:33:34;102871.56;;;5.67
69415;BMP280;56608;43.530;-5.652;2023-02-11T02:34:47;102870.47;;;5.68
69415;BMP280;56608;43.530;-5.652;2023-02-11T02:37:34;102869.25;;;5.66
69415;BMP280;56608;43.530;-5.652;2023-02-11T02:39:04;102866.53;;;5.78
69415;BMP280;56608;43.530;-5.652;2023-02-11T02:40:04;102864.13;;;5.89
69415;BMP280;56608;43.530;-5.652;2023-02-11T02:41:13;102867.81;;;5.84
69415;BMP280;56608;43.530;-5.652;2023-02-11T02:42:17;102865.31;;;5.75
69415;BMP280;56608;43.530;-5.652;2023-02-11T02:43:20;102864.78;;;5.70
69415;BMP280;56608;43.530;-5.652;2023-02-11T02:44:23;102867.31;;;5.78
69415;BMP280;56608;43.530;-5.652;2023-02-11T02:45:24;102863.97;;;5.81
69415;BMP280;56608;43.530;-5.652;2023-02-11T02:46:32;102862.31;;;5.77
69415;BMP280;56608;43.530;-5.652;2023-02-11T02:47:33;102860.81;;;5.64
69415;BMP280;56608;43.530;-5.652;2023-02-11T02:48:34;102857.19;;;5.56
69415;BMP280;56608;43.530;-5.652;2023-02-11T02:49:38;102863.34;;;5.72
69415;BMP280;56608;43.530;-5.652;2023-02-11T02:50:39;102850.56;;;5.66
69415;BMP280;56608;43.530;-5.652;2023-02-11T02:52:04;102853.22;;;5.50
69415;BMP280;56608;43.530;-5.652;2023-02-11T02:53:17;102853.31;;;5.54
69415;BMP280;56608;43.530;-5.652;2023-02-11T02:55:59;102854.97;;;5.30
69415;BMP280;56608;43.530;-5.652;2023-02-11T02:58:54;102835.56;;;5.18
69415;BMP280;56608;43.530;-5.652;2023-02-11T03:01:34;102833.56;;;5.27
69415;BMP280;56608;43.530;-5.652;2023-02-11T03:05:20;102824.69;;;5.23
69415;BMP280;56608;43.530;-5.652;2023-02-11T03:06:48;102824.03;;;5.13
69415;BMP280;56608;43.530;-5.652;2023-02-11T03:08:13;102824.81;;;5.14
69415;BMP280;56608;43.530;-5.652;2023-02-11T03:09:26;102817.91;;;5.13
69415;BMP280;56608;43.530;-5.652;2023-02-11T03:10:30;102815.59;;;5.11
69415;BMP280;56608;43.530;-5.652;2023-02-11T03:11:34;102816.47;;;5.15
69415;BMP280;56608;43.530;-5.652;2023-02-11T03:12:38;102817.84;;;5.09
69415;BMP280;56608;43.530;-5.652;2023-02-11T03:13:42;102815.50;;;5.08
69415;BMP280;56608;43.530;-5.652;2023-02-11T03:14:44;102814.22;;;4.90
69415;BMP280;56608;43.530;-5.652;2023-02-11T03:15:49;102813.22;;;4.94
69415;BMP280;56608;43.530;-5.652;2023-02-11T03:16:53;102806.69;;;4.92
69415;BMP280;56608;43.530;-5.652;2023-02-11T03:17:59;102809.22;;;5.00
69415;BMP280;56608;43.530;-5.652;2023-02-11T03:19:05;102806.97;;;5.02
69415;BMP280;56608;43.530;-5.652;2023-02-11T03:20:10;102807.84;;;5.06
69415;BMP280;56608;43.530;-5.652;2023-02-11T03:21:15;102808.72;;;5.10
69415;BMP280;56608;43.530;-5.652;2023-02-11T03:22:47;102816.63;;;5.07
69415;BMP280;56608;43.530;-5.652;2023-02-11T03:23:54;102806.66;;;5.04
69415;BMP280;56608;43.530;-5.652;2023-02-11T03:24:56;102802.00;;;5.01
69415;BMP280;56608;43.530;-5.652;2023-02-11T03:26:21;102806.00;;;4.95
69415;BMP280;56608;43.530;-5.652;2023-02-11T03:27:34;102805.78;;;4.88
69415;BMP280;56608;43.530;-5.652;2023-02-11T03:28:54;102803.09;;;5.00
69415;BMP280;56608;43.530;-5.652;2023-02-11T03:31:16;102803.88;;;5.00
69415;BMP280;56608;43.530;-5.652;2023-02-11T03:32:39;102798.25;;;4.90
69415;BMP280;56608;43.530;-5.652;2023-02-11T03:33:56;102798.78;;;4.95
69415;BMP280;56608;43.530;-5.652;2023-02-11T03:35:04;102797.78;;;5.00
69415;BMP280;56608;43.530;-5.652;2023-02-11T03:36:12;102794.56;;;4.94
69415;BMP280;56608;43.530;-5.652;2023-02-11T03:37:27;102796.13;;;4.95
69415;BMP280;56608;43.530;-5.652;2023-02-11T03:38:33;102799.31;;;5.01
69415;BMP280;56608;43.530;-5.652;2023-02-11T03:39:39;102802.22;;;4.96
69415;BMP280;56608;43.530;-5.652;2023-02-11T03:40:43;102805.13;;;4.91
69415;BMP280;56608;43.530;-5.652;2023-02-11T03:41:47;102798.56;;;5.00
69415;BMP280;56608;43.530;-5.652;2023-02-11T03:42:56;102802.69;;;5.13
69415;BMP280;56608;43.530;-5.652;2023-02-11T03:43:58;102797.69;;;4.96
69415;BMP280;56608;43.530;-5.652;2023-02-11T03:45:11;102794.16;;;4.80
69415;BMP280;56608;43.530;-5.652;2023-02-11T03:46:15;102793.28;;;4.76
69415;BMP280;56608;43.530;-5.652;2023-02-11T03:47:20;102788.94;;;4.84
69415;BMP280;56608;43.530;-5.652;2023-02-11T03:48:30;102794.34;;;4.99
69415;BMP280;56608;43.530;-5.652;2023-02-11T03:49:34;102785.44;;;5.07
69415;BMP280;56608;43.530;-5.652;2023-02-11T03:50:37;102790.06;;;5.10
69415;BMP280;56608;43.530;-5.652;2023-02-11T03:51:40;102790.31;;;4.93
69415;BMP280;56608;43.530;-5.652;2023-02-11T03:52:43;102786.72;;;4.86
69415;BMP280;56608;43.530;-5.652;2023-02-11T03:53:47;102784.16;;;4.89
69415;BMP280;56608;43.530;-5.652;2023-02-11T03:54:54;102786.13;;;4.92
69415;BMP280;56608;43.530;-5.652;2023-02-11T03:55:59;102782.94;;;4.87
69415;BMP280;56608;43.530;-5.652;2023-02-11T03:57:02;102775.59;;;4.96
69415;BMP280;56608;43.530;-5.652;2023-02-11T03:58:03;102783.91;;;4.94
69415;BMP280;56608;43.530;-5.652;2023-02-11T03:59:06;102792.47;;;4.88
69415;BMP280;56608;43.530;-5.652;2023-02-11T04:00:09;102787.72;;;4.81
69415;BMP280;56608;43.530;-5.652;2023-02-11T04:01:11;102790.38;;;4.81
69415;BMP280;56608;43.530;-5.652;2023-02-11T04:02:12;102783.72;;;4.87
69415;BMP280;56608;43.530;-5.652;2023-02-11T04:03:13;102783.81;;;4.91
69415;BMP280;56608;43.530;-5.652;2023-02-11T04:04:15;102781.38;;;4.86
69415;BMP280;56608;43.530;-5.652;2023-02-11T04:05:16;102781.06;;;4.75
69415;BMP280;56608;43.530;-5.652;2023-02-11T04:06:18;102778.84;;;4.77
69415;BMP280;56608;43.530;-5.652;2023-02-11T04:07:19;102783.66;;;4.71
69415;BMP280;56608;43.530;-5.652;2023-02-11T04:08:20;102778.78;;;4.73
69415;BMP280;56608;43.530;-5.652;2023-02-11T04:09:22;102783.66;;;4.71
69415;BMP280;56608;43.530;-5.652;2023-02-11T04:10:23;102778.41;;;4.75
69415;BMP280;56608;43.530;-5.652;2023-02-11T04:11:24;102783.16;;;4.81
69415;BMP280;56608;43.530;-5.652;2023-02-11T04:12:25;102778.66;;;4.70
69415;BMP280;56608;43.530;-5.652;2023-02-11T04:13:27;102768.91;;;4.74
69415;BMP280;56608;43.530;-5.652;2023-02-11T04:14:28;102778.00;;;4.73
69415;BMP280;56608;43.530;-5.652;2023-02-11T04:15:30;102780.66;;;4.73
69415;BMP280;56608;43.530;-5.652;2023-02-11T04:16:31;102778.66;;;4.70
69415;BMP280;56608;43.530;-5.652;2023-02-11T04:17:33;102772.22;;;4.71
69415;BMP280;56608;43.530;-5.652;2023-02-11T04:18:34;102776.44;;;4.72
69415;BMP280;56608;43.530;-5.652;2023-02-11T04:19:35;102772.56;;;4.69
69415;BMP280;56608;43.530;-5.652;2023-02-11T04:20:37;102778.44;;;4.63
69415;BMP280;56608;43.530;-5.652;2023-02-11T04:21:38;102767.78;;;4.63
69415;BMP280;56608;43.530;-5.652;2023-02-11T04:22:39;102764.00;;;4.64
69415;BMP280;56608;43.530;-5.652;2023-02-11T04:23:41;102770.66;;;4.58
69415;BMP280;56608;43.530;-5.652;2023-02-11T04:24:42;102773.88;;;4.63
69415;BMP280;56608;43.530;-5.652;2023-02-11T04:25:44;102769.34;;;4.64
69415;BMP280;56608;43.530;-5.652;2023-02-11T04:26:45;102770.22;;;4.68
69415;BMP280;56608;43.530;-5.652;2023-02-11T04:27:46;102767.88;;;4.78
69415;BMP280;56608;43.530;-5.652;2023-02-11T04:28:47;102767.97;;;4.82
69415;BMP280;56608;43.530;-5.652;2023-02-11T04:29:49;102762.63;;;4.82
69415;BMP280;56608;43.530;-5.652;2023-02-11T04:30:49;102767.72;;;4.87
69415;BMP280;56608;43.530;-5.652;2023-02-11T04:31:51;102771.06;;;4.84
69415;BMP280;56608;43.530;-5.652;2023-02-11T04:32:53;102768.13;;;4.73
69415;BMP280;56608;43.530;-5.652;2023-02-11T04:33:55;102770.41;;;4.75
69415;BMP280;56608;43.530;-5.652;2023-02-11T04:34:57;102770.41;;;4.75
69415;BMP280;56608;43.530;-5.652;2023-02-11T04:35:58;102771.63;;;4.77
69415;BMP280;56608;43.530;-5.652;2023-02-11T04:36:59;102764.78;;;4.64
69415;BMP280;56608;43.530;-5.652;2023-02-11T04:38:01;102770.09;;;4.64
69415;BMP280;56608;43.530;-5.652;2023-02-11T04:39:03;102771.09;;;4.60
69415;BMP280;56608;43.530;-5.652;2023-02-11T04:40:05;102768.22;;;4.65
69415;BMP280;56608;43.530;-5.652;2023-02-11T04:41:06;102759.44;;;4.64
69415;BMP280;56608;43.530;-5.652;2023-02-11T04:42:07;102774.66;;;4.64
69415;BMP280;56608;43.530;-5.652;2023-02-11T04:43:09;102765.78;;;4.72
69415;BMP280;56608;43.530;-5.652;2023-02-11T04:44:10;102769.75;;;4.78
69415;BMP280;56608;43.530;-5.652;2023-02-11T04:45:11;102772.34;;;4.74
69415;BMP280;56608;43.530;-5.652;2023-02-11T04:46:13;102769.56;;;4.71
69415;BMP280;56608;43.530;-5.652;2023-02-11T04:47:14;102772.41;;;4.78
69415;BMP280;56608;43.530;-5.652;2023-02-11T04:48:16;102770.97;;;4.80
69415;BMP280;56608;43.530;-5.652;2023-02-11T04:49:17;102765.19;;;4.78
69415;BMP280;56608;43.530;-5.652;2023-02-11T04:50:19;102769.06;;;4.81
69415;BMP280;56608;43.530;-5.652;2023-02-11T04:51:19;102772.56;;;4.69
69415;BMP280;56608;43.530;-5.652;2023-02-11T04:52:21;102771.91;;;4.72
69415;BMP280;56608;43.530;-5.652;2023-02-11T04:53:22;102764.78;;;4.64
69415;BMP280;56608;43.530;-5.652;2023-02-11T04:54:24;102770.78;;;4.73
69415;BMP280;56608;43.530;-5.652;2023-02-11T04:55:25;102765.56;;;4.65
69415;BMP280;56608;43.530;-5.652;2023-02-11T04:56:27;102774.75;;;4.67
69415;BMP280;56608;43.530;-5.652;2023-02-11T04:57:28;102767.69;;;4.71
69415;BMP280;56608;43.530;-5.652;2023-02-11T04:58:29;102768.47;;;4.72
69415;BMP280;56608;43.530;-5.652;2023-02-11T04:59:30;102765.78;;;4.72
69415;BMP280;56608;43.530;-5.652;2023-02-11T05:00:31;102768.47;;;4.72
69415;BMP280;56608;43.530;-5.652;2023-02-11T05:01:33;102768.47;;;4.72
69415;BMP280;56608;43.530;-5.652;2023-02-11T05:02:35;102765.19;;;4.78
69415;BMP280;56608;43.530;-5.652;2023-02-11T05:03:35;102768.13;;;4.73
69415;BMP280;56608;43.530;-5.652;2023-02-11T05:04:37;102770.94;;;4.53
69415;BMP280;56608;43.530;-5.652;2023-02-11T05:05:39;102771.69;;;4.41
69415;BMP280;56608;43.530;-5.652;2023-02-11T05:06:41;102769.72;;;4.50
69415;BMP280;56608;43.530;-5.652;2023-02-11T05:07:42;102769.72;;;4.50
69415;BMP280;56608;43.530;-5.652;2023-02-11T05:08:44;102764.50;;;4.54
69415;BMP280;56608;43.530;-5.652;2023-02-11T05:09:44;102764.38;;;4.50
69415;BMP280;56608;43.530;-5.652;2023-02-11T05:10:46;102768.72;;;4.42
69415;BMP280;56608;43.530;-5.652;2023-02-11T05:11:47;102768.94;;;4.37
69415;BMP280;56608;43.530;-5.652;2023-02-11T05:12:49;102774.25;;;4.25
69415;BMP280;56608;43.530;-5.652;2023-02-11T05:13:51;102770.03;;;4.24
69415;BMP280;56608;43.530;-5.652;2023-02-11T05:14:52;102772.59;;;4.33
69415;BMP280;56608;43.530;-5.652;2023-02-11T05:15:54;102760.72;;;4.42
69415;BMP280;56608;43.530;-5.652;2023-02-11T05:16:55;102771.59;;;4.37
69415;BMP280;56608;43.530;-5.652;2023-02-11T05:17:57;102771.81;;;4.32
69415;BMP280;56608;43.530;-5.652;2023-02-11T05:18:57;102781.81;;;4.23
69415;BMP280;56608;43.530;-5.652;2023-02-11T05:19:59;102780.81;;;4.28
69415;BMP280;56608;43.530;-5.652;2023-02-11T05:21:05;102768.59;;;4.14
69415;BMP280;56608;43.530;-5.652;2023-02-11T05:22:06;102774.16;;;4.09
69415;BMP280;56608;43.530;-5.652;2023-02-11T05:23:08;102772.37;;;4.13
69415;BMP280;56608;43.530;-5.652;2023-02-11T05:24:09;102779.56;;;4.13
69415;BMP280;56608;43.530;-5.652;2023-02-11T05:25:10;102764.72;;;4.00
69415;BMP280;56608;43.530;-5.652;2023-02-11T05:26:12;102777.25;;;4.11
69415;BMP280;56608;43.530;-5.652;2023-02-11T05:27:13;102765.37;;;4.09
69415;BMP280;56608;43.530;-5.652;2023-02-11T05:28:14;102769.59;;;4.22
69415;BMP280;56608;43.530;-5.652;2023-02-11T05:29:16;102770.50;;;4.26
69415;BMP280;56608;43.530;-5.652;2023-02-11T05:30:16;102775.03;;;4.26
69415;BMP280;56608;43.530;-5.652;2023-02-11T05:31:18;102765.94;;;4.27
69415;BMP280;56608;43.530;-5.652;2023-02-11T05:32:19;102763.19;;;4.23
69415;BMP280;56608;43.530;-5.652;2023-02-11T05:33:21;102765.94;;;4.14
69415;BMP280;56608;43.530;-5.652;2023-02-11T05:34:22;102765.94;;;4.14
69415;BMP280;56608;43.530;-5.652;2023-02-11T05:35:24;102768.28;;;4.16
69415;BMP280;56608;43.530;-5.652;2023-02-11T05:36:25;102766.94;;;4.10
69415;BMP280;56608;43.530;-5.652;2023-02-11T05:37:25;102761.94;;;4.08
69415;BMP280;56608;43.530;-5.652;2023-02-11T05:38:27;102760.72;;;4.06
69415;BMP280;56608;43.530;-5.652;2023-02-11T05:39:29;102756.50;;;4.05
69415;BMP280;56608;43.530;-5.652;2023-02-11T05:40:30;102751.63;;;4.07
69415;BMP280;56608;43.530;-5.652;2023-02-11T05:41:32;102757.41;;;4.09
69415;BMP280;56608;43.530;-5.652;2023-02-11T05:42:33;102757.19;;;4.14
69415;BMP280;56608;43.530;-5.652;2023-02-11T05:43:35;102753.75;;;4.01
69415;BMP280;56608;43.530;-5.652;2023-02-11T05:44:36;102754.31;;;4.07
69415;BMP280;56608;43.530;-5.652;2023-02-11T05:45:38;102758.41;;;4.04
69415;BMP280;56608;43.530;-5.652;2023-02-11T05:46:39;102754.97;;;3.92
69415;BMP280;56608;43.530;-5.652;2023-02-11T05:47:39;102760.94;;;3.89
69415;BMP280;56608;43.530;-5.652;2023-02-11T05:48:42;102758.87;;;3.94
69415;BMP280;56608;43.530;-5.652;2023-02-11T05:49:43;102755.09;;;3.95
69415;BMP280;56608;43.530;-5.652;2023-02-11T05:50:44;102760.94;;;3.89
69415;BMP280;56608;43.530;-5.652;2023-02-11T05:51:46;102764.00;;;3.66
69415;BMP280;56608;43.530;-5.652;2023-02-11T05:52:47;102757.16;;;3.65
69415;BMP280;56608;43.530;-5.652;2023-02-11T05:53:49;102753.50;;;3.70
69415;BMP280;56608;43.530;-5.652;2023-02-11T05:54:50;102751.72;;;3.74
69415;BMP280;56608;43.530;-5.652;2023-02-11T05:55:51;102755.81;;;3.83
69415;BMP280;56608;43.530;-5.652;2023-02-11T05:56:53;102757.50;;;3.88
69415;BMP280;56608;43.530;-5.652;2023-02-11T05:57:53;102750.28;;;3.89
69415;BMP280;56608;43.530;-5.652;2023-02-11T05:58:57;102750.09;;;3.94
69415;BMP280;56608;43.530;-5.652;2023-02-11T05:59:59;102751.75;;;3.98
69415;BMP280;56608;43.530;-5.652;2023-02-11T06:01:00;102748.31;;;3.98
69415;BMP280;56608;43.530;-5.652;2023-02-11T06:02:02;102753.72;;;3.89
69415;BMP280;56608;43.530;-5.652;2023-02-11T06:03:03;102755.16;;;3.87
69415;BMP280;56608;43.530;-5.652;2023-02-11T06:04:05;102751.72;;;3.86
69415;BMP280;56608;43.530;-5.652;2023-02-11T06:05:07;102751.22;;;3.93
69415;BMP280;56608;43.530;-5.652;2023-02-11T06:06:11;102747.19;;;3.87
69415;BMP280;56608;43.530;-5.652;2023-02-11T06:07:13;102755.25;;;3.78
69415;BMP280;56608;43.530;-5.652;2023-02-11T06:08:14;102751.81;;;3.77
69415;BMP280;56608;43.530;-5.652;2023-02-11T06:09:15;102745.66;;;3.73
69415;BMP280;56608;43.530;-5.652;2023-02-11T06:10:17;102752.06;;;3.72
69415;BMP280;56608;43.530;-5.652;2023-02-11T06:11:17;102748.84;;;3.79
69415;BMP280;56608;43.530;-5.652;2023-02-11T06:12:20;102746.09;;;3.88
69415;BMP280;56608;43.530;-5.652;2023-02-11T06:13:21;102743.06;;;3.77
69415;BMP280;56608;43.530;-5.652;2023-02-11T06:14:23;102746.19;;;3.79
69415;BMP280;56608;43.530;-5.652;2023-02-11T06:15:24;102742.53;;;3.83
69415;BMP280;56608;43.530;-5.652;2023-02-11T06:16:25;102745.13;;;3.92
69415;BMP280;56608;43.530;-5.652;2023-02-11T06:17:26;102747.19;;;3.99
69415;BMP280;56608;43.530;-5.652;2023-02-11T06:18:29;102746.09;;;3.88
69415;BMP280;56608;43.530;-5.652;2023-02-11T06:19:29;102745.66;;;3.73
69415;BMP280;56608;43.530;-5.652;2023-02-11T06:20:31;102746.75;;;3.72
69415;BMP280;56608;43.530;-5.652;2023-02-11T06:21:33;102745.19;;;3.71
69415;BMP280;56608;43.530;-5.652;2023-02-11T06:22:34;102737.88;;;3.68
69415;BMP280;56608;43.530;-5.652;2023-02-11T06:23:36;102749.75;;;3.71